createdAt,value
2023-05-09T00:00:26.181Z,5.95
2023-05-09T00:02:58.274Z,6.00
2023-05-09T00:05:30.304Z,5.63
2023-05-09T00:08:02.241Z,5.97
2023-05-09T00:10:35.737Z,6.40
2023-05-09T00:13:08.120Z,6.45
2023-05-09T00:15:40.185Z,5.88
2023-05-09T00:18:12.186Z,6.82
2023-05-09T00:20:44.474Z,6.22
2023-05-09T00:23:16.828Z,6.25
2023-05-09T00:25:50.252Z,6.63
2023-05-09T00:28:22.368Z,7.13
2023-05-09T00:30:54.351Z,7.60
2023-05-09T00:33:27.057Z,7.82
2023-05-09T00:35:59.085Z,6.43
2023-05-09T00:38:31.099Z,6.55
2023-05-09T00:41:04.796Z,7.40
2023-05-09T00:43:36.996Z,7.18
2023-05-09T00:46:08.997Z,6.43
2023-05-09T00:48:41.275Z,7.05
2023-05-09T00:51:13.437Z,6.55
2023-05-09T00:53:45.962Z,6.70
2023-05-09T00:56:19.577Z,5.93
2023-05-09T00:58:51.867Z,6.15
2023-05-09T01:01:24.205Z,6.38
2023-05-09T01:03:56.531Z,6.25
2023-05-09T01:06:39.650Z,6.25
2023-05-09T01:09:22.692Z,6.03
2023-05-09T01:12:05.790Z,6.60
2023-05-09T01:14:44.506Z,5.63
2023-05-09T01:17:27.197Z,6.85
2023-05-09T01:20:11.080Z,6.78
2023-05-09T01:22:46.716Z,6.32
2023-05-09T01:25:49.201Z,6.57
2023-05-09T01:28:41.701Z,6.80
2023-05-09T01:31:17.165Z,7.03
2023-05-09T01:33:56.607Z,6.68
2023-05-09T01:36:33.052Z,6.13
2023-05-09T01:39:06.311Z,5.60
2023-05-09T01:41:38.680Z,5.88
2023-05-09T01:44:13.609Z,6.43
2023-05-09T01:46:47.970Z,5.72
2023-05-09T01:49:20.913Z,6.22
2023-05-09T01:51:54.693Z,6.10
2023-05-09T01:54:27.732Z,6.25
2023-05-09T01:57:00.783Z,5.82
2023-05-09T01:59:34.735Z,5.97
2023-05-09T02:02:08.230Z,6.25
2023-05-09T02:04:42.538Z,6.22
2023-05-09T02:07:15.164Z,5.50
2023-05-09T02:09:48.339Z,5.50
2023-05-09T02:12:20.882Z,5.60
2023-05-09T02:14:53.576Z,5.10
2023-05-09T02:17:29.475Z,5.95
2023-05-09T02:20:01.483Z,5.35
2023-05-09T02:22:33.525Z,5.05
2023-05-09T02:25:07.404Z,5.20
2023-05-09T02:27:40.585Z,4.75
2023-05-09T02:30:17.630Z,5.00
2023-05-09T02:32:53.739Z,4.75
2023-05-09T02:35:27.431Z,4.65
2023-05-09T02:38:00.797Z,4.78
2023-05-09T02:40:34.143Z,5.35
2023-05-09T02:43:06.161Z,5.15
2023-05-09T02:45:38.264Z,5.55
2023-05-09T02:48:11.776Z,5.00
2023-05-09T02:50:44.391Z,4.97
2023-05-09T02:53:16.392Z,4.75
2023-05-09T02:55:48.313Z,4.72
2023-05-09T02:58:20.350Z,3.78
2023-05-09T03:00:52.341Z,4.97
2023-05-09T03:03:26.006Z,4.22
2023-05-09T03:05:58.258Z,4.88
2023-05-09T03:08:31.122Z,4.55
2023-05-09T03:11:04.104Z,4.13
2023-05-09T03:13:36.508Z,4.43
2023-05-09T03:16:08.574Z,3.92
2023-05-09T03:18:41.936Z,4.05
2023-05-09T03:21:13.877Z,4.13
2023-05-09T03:23:46.005Z,4.82
2023-05-09T03:26:17.955Z,4.63
2023-05-09T03:28:50.443Z,4.55
2023-05-09T03:31:22.542Z,4.25
2023-05-09T03:33:55.946Z,3.72
2023-05-09T03:36:28.417Z,4.18
2023-05-09T03:39:01.056Z,4.22
2023-05-09T03:41:33.438Z,3.92
2023-05-09T03:44:05.933Z,4.55
2023-05-09T03:46:38.092Z,4.63
2023-05-09T03:49:12.414Z,4.38
2023-05-09T03:51:44.559Z,5.00
2023-05-09T03:54:20.358Z,4.18
2023-05-09T03:56:52.859Z,4.05
2023-05-09T03:59:24.907Z,4.30
2023-05-09T04:01:56.983Z,4.47
2023-05-09T04:04:32.960Z,4.63
2023-05-09T04:07:05.456Z,4.72
2023-05-09T04:09:37.575Z,4.72
2023-05-09T04:12:09.544Z,4.57
2023-05-09T04:14:41.605Z,4.47
2023-05-09T04:17:14.031Z,4.60
2023-05-09T04:19:47.522Z,4.60
2023-05-09T04:22:19.690Z,4.18
2023-05-09T04:24:51.778Z,4.60
2023-05-09T04:27:23.864Z,5.00
2023-05-09T04:29:56.347Z,4.78
2023-05-09T04:32:28.351Z,4.88
2023-05-09T04:35:01.796Z,4.25
2023-05-09T04:37:38.355Z,4.80
2023-05-09T04:40:11.620Z,5.05
2023-05-09T04:42:50.180Z,5.15
2023-05-09T04:45:22.711Z,4.25
2023-05-09T04:47:54.721Z,4.75
2023-05-09T04:50:28.217Z,5.78
2023-05-09T04:53:00.230Z,4.47
2023-05-09T04:55:32.317Z,4.05
2023-05-09T04:58:04.256Z,4.72
2023-05-09T05:00:36.520Z,4.30
2023-05-09T05:03:08.624Z,4.97
2023-05-09T05:05:42.579Z,3.97
2023-05-09T05:08:14.598Z,3.97
2023-05-09T05:10:49.117Z,4.50
2023-05-09T05:13:22.469Z,3.88
2023-05-09T05:15:59.214Z,3.47
2023-05-09T05:18:31.384Z,3.70
2023-05-09T05:21:05.283Z,3.60
2023-05-09T05:23:37.377Z,3.53
2023-05-09T05:26:09.412Z,3.42
2023-05-09T05:28:42.172Z,4.07
2023-05-09T05:31:14.166Z,3.33
2023-05-09T05:33:46.148Z,3.28
2023-05-09T05:36:20.904Z,3.55
2023-05-09T05:38:52.895Z,3.58
2023-05-09T05:41:24.845Z,3.45
2023-05-09T05:43:57.006Z,3.90
2023-05-09T05:46:29.747Z,4.07
2023-05-09T05:49:01.929Z,3.03
2023-05-09T05:51:36.010Z,2.85
2023-05-09T05:54:09.745Z,3.10
2023-05-09T05:56:42.076Z,3.25
2023-05-09T05:59:15.034Z,3.30
2023-05-09T06:01:47.284Z,3.78
2023-05-09T06:04:19.762Z,3.22
2023-05-09T06:06:53.844Z,3.55
2023-05-09T06:09:26.073Z,3.33
2023-05-09T06:11:58.077Z,3.15
2023-05-09T06:14:30.949Z,4.20
2023-05-09T06:17:03.120Z,2.95
2023-05-09T06:19:35.333Z,2.90
2023-05-09T06:22:09.337Z,2.55
2023-05-09T06:24:41.282Z,3.45
2023-05-09T06:27:13.497Z,3.30
2023-05-09T06:29:45.520Z,3.05
2023-05-09T06:32:18.748Z,2.95
2023-05-09T06:34:50.775Z,3.17
2023-05-09T06:37:24.246Z,2.97
2023-05-09T06:39:56.309Z,3.50
2023-05-09T06:42:29.316Z,3.58
2023-05-09T06:45:01.287Z,3.25
2023-05-09T06:47:33.286Z,2.85
2023-05-09T06:50:06.328Z,3.10
2023-05-09T06:52:39.771Z,3.20
2023-05-09T06:55:12.109Z,2.72
2023-05-09T06:57:44.215Z,4.05
2023-05-09T07:00:16.896Z,4.22
2023-05-09T07:02:48.902Z,4.15
2023-05-09T07:05:21.021Z,3.63
2023-05-09T07:07:55.236Z,3.63
2023-05-09T07:10:27.403Z,4.97
2023-05-09T07:12:59.462Z,6.15
2023-05-09T07:15:41.162Z,6.60
2023-05-09T07:18:14.721Z,5.82
2023-05-09T07:20:46.802Z,7.28
2023-05-09T07:23:20.155Z,7.60
2023-05-09T07:25:56.942Z,5.25
2023-05-09T07:28:28.891Z,4.30
2023-05-09T07:31:00.842Z,4.95
2023-05-09T07:33:33.662Z,5.20
2023-05-09T07:36:06.024Z,4.32
2023-05-09T07:38:39.797Z,5.03
2023-05-09T07:41:11.729Z,4.00
2023-05-09T07:43:43.799Z,5.25
2023-05-09T07:46:15.992Z,3.55
2023-05-09T07:48:48.399Z,3.45
2023-05-09T07:51:20.806Z,2.90
2023-05-09T07:53:56.233Z,2.47
2023-05-09T07:56:28.242Z,2.30
2023-05-09T07:59:00.518Z,2.58
2023-05-09T08:01:32.518Z,2.70
2023-05-09T08:04:06.897Z,2.95
2023-05-09T08:06:38.938Z,2.17
2023-05-09T08:09:12.275Z,2.58
2023-05-09T08:11:44.314Z,2.95
2023-05-09T08:14:16.312Z,2.17
2023-05-09T08:16:48.264Z,1.98
2023-05-09T08:19:21.219Z,2.30
2023-05-09T08:21:53.414Z,1.77
2023-05-09T08:24:26.824Z,2.00
2023-05-09T08:26:58.858Z,1.80
2023-05-09T08:29:31.291Z,1.73
2023-05-09T08:32:03.336Z,2.00
2023-05-09T08:34:36.497Z,1.85
2023-05-09T08:37:08.643Z,1.90
2023-05-09T08:39:42.145Z,1.73
2023-05-09T08:42:16.046Z,1.85
2023-05-09T08:44:48.062Z,2.22
2023-05-09T08:47:21.279Z,2.00
2023-05-09T08:49:54.092Z,2.30
2023-05-09T08:52:26.194Z,2.60
2023-05-09T08:54:59.731Z,2.17
2023-05-09T08:57:33.459Z,2.17
2023-05-09T09:00:06.701Z,9.95
2023-05-09T09:02:42.340Z,2.25
2023-05-09T09:05:34.173Z,1.80
2023-05-09T09:08:08.028Z,1.70
2023-05-09T09:10:47.028Z,1.95
2023-05-09T09:13:20.614Z,1.70
2023-05-09T09:15:54.297Z,1.88
2023-05-09T09:18:29.812Z,1.63
2023-05-09T09:21:06.760Z,1.80
2023-05-09T09:23:43.001Z,1.50
2023-05-09T09:26:16.744Z,1.95
2023-05-09T09:28:48.646Z,2.33
2023-05-09T09:31:21.963Z,1.35
2023-05-09T09:33:59.639Z,1.90
2023-05-09T09:36:32.708Z,1.92
2023-05-09T09:39:05.725Z,1.35
2023-05-09T09:41:39.828Z,1.80
2023-05-09T09:44:13.406Z,1.67
2023-05-09T09:46:46.659Z,1.65
2023-05-09T09:49:20.474Z,1.98
2023-05-09T09:51:53.819Z,1.63
2023-05-09T09:54:27.735Z,1.50
2023-05-09T09:57:01.968Z,1.75
2023-05-09T09:59:33.902Z,1.52
2023-05-09T10:02:09.527Z,1.73
2023-05-09T10:04:42.721Z,1.80
2023-05-09T10:07:15.247Z,1.67
2023-05-09T10:09:49.275Z,1.80
2023-05-09T10:12:23.617Z,1.35
2023-05-09T10:14:55.890Z,1.60
2023-05-09T10:17:32.057Z,1.92
2023-05-09T10:20:06.364Z,1.70
2023-05-09T10:22:40.026Z,1.98
2023-05-09T10:25:17.580Z,1.50
2023-05-09T10:27:54.723Z,1.42
2023-05-09T10:30:32.969Z,1.40
2023-05-09T10:33:09.209Z,1.55
2023-05-09T10:35:46.413Z,1.30
2023-05-09T10:38:19.187Z,1.60
2023-05-09T10:40:53.534Z,1.60
2023-05-09T10:43:27.985Z,1.67
2023-05-09T10:46:01.003Z,1.70
2023-05-09T10:48:33.819Z,2.00
2023-05-09T10:51:06.424Z,1.85
2023-05-09T10:53:43.630Z,1.95
2023-05-09T10:56:27.144Z,1.95
2023-05-09T10:59:00.901Z,2.22
2023-05-09T11:01:37.267Z,1.60
2023-05-09T11:04:11.273Z,1.85
2023-05-09T11:06:47.694Z,2.05
2023-05-09T11:09:32.745Z,2.20
2023-05-09T11:12:10.086Z,1.58
2023-05-09T11:14:45.077Z,1.85
2023-05-09T11:17:28.818Z,1.50
2023-05-09T11:20:03.540Z,1.67
2023-05-09T11:22:40.445Z,4.57
2023-05-09T11:25:14.295Z,2.35
2023-05-09T11:27:49.655Z,2.95
2023-05-09T11:30:23.104Z,2.58
2023-05-09T11:32:58.103Z,1.88
2023-05-09T11:35:30.270Z,1.80
2023-05-09T11:38:04.044Z,1.70
2023-05-09T11:40:37.905Z,2.20
2023-05-09T11:43:10.192Z,1.70
2023-05-09T11:45:46.515Z,2.05
2023-05-09T11:48:22.266Z,1.67
2023-05-09T11:50:54.260Z,1.45
2023-05-09T11:53:26.312Z,1.73
2023-05-09T11:55:58.499Z,1.77
2023-05-09T11:58:31.226Z,4.05
2023-05-09T12:01:04.871Z,5.40
2023-05-09T12:03:42.895Z,8.70
2023-05-09T12:06:17.311Z,6.05
2023-05-09T12:08:51.139Z,3.45
2023-05-09T12:11:24.712Z,3.65
2023-05-09T12:13:57.124Z,4.28
2023-05-09T12:16:30.873Z,3.08
2023-05-09T12:19:02.924Z,2.40
2023-05-09T12:21:34.898Z,4.15
2023-05-09T12:24:07.156Z,2.15
2023-05-09T12:26:39.881Z,2.00
2023-05-09T12:29:12.807Z,2.25
2023-05-09T12:31:47.176Z,2.10
2023-05-09T12:34:19.848Z,1.80
2023-05-09T12:36:52.013Z,1.85
2023-05-09T12:39:24.673Z,1.65
2023-05-09T12:42:01.650Z,1.75
2023-05-09T12:44:34.969Z,1.73
2023-05-09T12:47:08.590Z,2.10
2023-05-09T12:49:40.624Z,1.63
2023-05-09T12:52:19.247Z,1.90
2023-05-09T12:54:52.704Z,1.80
2023-05-09T12:57:28.868Z,1.60
2023-05-09T13:00:04.746Z,2.00
2023-05-09T13:02:41.927Z,2.38
2023-05-09T13:05:22.365Z,2.10
2023-05-09T13:10:29.171Z,2.13
2023-05-09T13:13:01.513Z,3.13
2023-05-09T13:15:33.830Z,3.53
2023-05-09T13:18:07.317Z,1.80
2023-05-09T13:20:39.323Z,1.50
2023-05-09T13:23:11.305Z,2.08
2023-05-09T13:25:43.405Z,2.08
2023-05-09T13:28:15.416Z,2.00
2023-05-09T13:30:47.395Z,1.65
2023-05-09T13:35:55.786Z,1.67
2023-05-09T13:38:30.952Z,2.25
2023-05-09T13:41:03.045Z,2.50
2023-05-09T13:43:35.426Z,2.58
2023-05-09T13:46:07.409Z,2.35
2023-05-09T13:48:41.894Z,2.20
2023-05-09T13:51:14.021Z,2.65
2023-05-09T13:53:46.452Z,1.90
2023-05-09T13:56:18.578Z,2.47
2023-05-09T13:58:50.566Z,1.83
2023-05-09T14:01:22.752Z,2.05
2023-05-09T14:03:56.187Z,2.38
2023-05-09T14:06:29.095Z,2.25
2023-05-09T14:09:01.070Z,1.92
2023-05-09T14:11:33.450Z,1.92
2023-05-09T14:14:05.571Z,1.90
2023-05-09T14:16:37.496Z,2.30
2023-05-09T14:19:11.382Z,2.72
2023-05-09T14:21:44.015Z,2.10
2023-05-09T14:24:16.610Z,1.92
2023-05-09T14:26:48.691Z,2.13
2023-05-09T14:29:20.632Z,2.25
2023-05-09T14:31:52.736Z,2.83
2023-05-09T14:34:26.158Z,2.22
2023-05-09T14:36:58.135Z,2.33
2023-05-09T14:39:30.374Z,2.20
2023-05-09T14:42:02.518Z,1.83
2023-05-09T14:44:34.494Z,2.15
2023-05-09T14:47:07.509Z,2.38
2023-05-09T14:49:41.483Z,2.22
2023-05-09T14:52:13.873Z,2.40
2023-05-09T14:54:45.848Z,2.05
2023-05-09T14:57:17.810Z,2.08
2023-05-09T14:59:49.788Z,2.38
2023-05-09T15:02:21.800Z,2.35
2023-05-09T15:04:56.153Z,2.00
2023-05-09T15:07:28.104Z,1.52
2023-05-09T15:10:00.207Z,2.00
2023-05-09T15:12:32.122Z,2.03
2023-05-09T15:15:13.320Z,2.20
2023-05-09T15:17:46.310Z,1.65
2023-05-09T15:20:19.884Z,2.38
2023-05-09T15:22:52.043Z,2.00
2023-05-09T15:25:24.062Z,1.85
2023-05-09T15:27:56.814Z,2.10
2023-05-09T15:30:28.889Z,1.40
2023-05-09T15:33:00.982Z,2.15
2023-05-09T15:35:34.359Z,2.50
2023-05-09T15:38:07.890Z,2.70
2023-05-09T15:40:40.557Z,2.30
2023-05-09T15:43:13.013Z,2.50
2023-05-09T15:45:48.382Z,1.90
2023-05-09T15:48:20.406Z,1.95
2023-05-09T15:50:54.276Z,2.67
2023-05-09T15:53:27.836Z,2.88
2023-05-09T15:56:00.478Z,2.10
2023-05-09T15:58:32.616Z,3.03
2023-05-09T16:01:06.208Z,1.98
2023-05-09T16:03:38.374Z,1.80
2023-05-09T16:06:12.969Z,1.90
2023-05-09T16:08:46.346Z,2.08
2023-05-09T16:11:18.328Z,2.17
2023-05-09T16:13:50.361Z,2.10
2023-05-09T16:16:22.622Z,1.55
2023-05-09T16:18:54.572Z,2.33
2023-05-09T16:21:29.265Z,2.45
2023-05-09T16:24:03.142Z,2.92
2023-05-09T16:26:36.734Z,3.08
2023-05-09T16:29:08.749Z,2.35
2023-05-09T16:31:41.083Z,3.55
2023-05-09T16:34:13.126Z,2.15
2023-05-09T16:36:47.533Z,1.73
2023-05-09T16:39:19.534Z,1.52
2023-05-09T16:41:51.549Z,1.60
2023-05-09T16:44:24.575Z,1.70
2023-05-09T16:46:56.517Z,1.77
2023-05-09T16:49:28.519Z,2.10
2023-05-09T16:52:01.904Z,3.70
2023-05-09T16:54:33.848Z,2.00
2023-05-09T16:57:05.973Z,1.85
2023-05-09T16:59:38.182Z,2.78
2023-05-09T17:02:10.218Z,2.63
2023-05-09T17:04:42.429Z,2.20
2023-05-09T17:07:16.224Z,2.47
2023-05-09T17:09:49.554Z,2.10
2023-05-09T17:12:21.670Z,2.60
2023-05-09T17:14:53.714Z,1.85
2023-05-09T17:17:25.757Z,1.77
2023-05-09T17:19:57.877Z,2.03
2023-05-09T17:22:31.340Z,4.30
2023-05-09T17:25:03.484Z,9.57
2023-05-09T17:27:35.488Z,14.20
2023-05-09T17:30:09.873Z,10.20
2023-05-09T17:32:42.711Z,7.38
2023-05-09T17:35:15.108Z,7.22
2023-05-09T17:37:48.590Z,6.32
2023-05-09T17:40:20.778Z,7.82
2023-05-09T17:42:52.974Z,4.25
2023-05-09T17:45:24.919Z,2.92
2023-05-09T17:47:56.941Z,2.80
2023-05-09T17:50:29.237Z,2.20
2023-05-09T17:53:02.672Z,3.22
2023-05-09T17:55:34.589Z,4.95
2023-05-09T17:58:08.082Z,9.38
2023-05-09T18:00:40.092Z,6.13
2023-05-09T18:03:12.875Z,8.95
2023-05-09T18:05:44.878Z,4.25
2023-05-09T18:08:18.259Z,3.70
2023-05-09T18:10:50.331Z,10.35
2023-05-09T18:13:22.735Z,4.93
2023-05-09T18:15:59.611Z,5.65
2023-05-09T18:18:32.523Z,4.68
2023-05-09T18:21:05.475Z,3.90
2023-05-09T18:23:38.847Z,4.53
2023-05-09T18:26:10.837Z,3.38
2023-05-09T18:28:42.844Z,2.85
2023-05-09T18:31:15.134Z,4.00
2023-05-09T18:33:47.184Z,2.90
2023-05-09T18:36:19.244Z,3.28
2023-05-09T18:38:52.817Z,3.40
2023-05-09T18:41:25.817Z,3.70
2023-05-09T18:43:58.072Z,3.95
2023-05-09T18:46:31.820Z,3.75
2023-05-09T18:49:04.196Z,3.83
2023-05-09T18:51:36.595Z,3.67
2023-05-09T18:54:09.978Z,3.72
2023-05-09T18:56:42.409Z,3.88
2023-05-09T18:59:16.404Z,3.28
2023-05-09T19:01:48.321Z,3.55
2023-05-09T19:04:20.358Z,3.38
2023-05-09T19:06:52.314Z,3.53
2023-05-09T19:09:25.652Z,3.70
2023-05-09T19:11:59.581Z,3.05
2023-05-09T19:14:32.021Z,4.45
2023-05-09T19:17:05.589Z,3.55
2023-05-09T19:19:37.800Z,3.78
2023-05-09T19:22:09.757Z,4.38
2023-05-09T19:24:43.105Z,4.35
2023-05-09T19:27:15.031Z,4.18
2023-05-09T19:29:49.283Z,4.72
2023-05-09T19:32:22.196Z,5.05
2023-05-09T19:34:54.230Z,4.95
2023-05-09T19:37:26.199Z,5.05
2023-05-09T19:39:59.542Z,5.70
2023-05-09T19:42:31.510Z,4.90
2023-05-09T19:45:03.747Z,4.78
2023-05-09T19:47:35.793Z,4.97
2023-05-09T19:50:08.781Z,5.35
2023-05-09T19:52:40.838Z,5.55
2023-05-09T19:55:14.261Z,5.03
2023-05-09T19:57:46.174Z,5.07
2023-05-09T20:00:19.038Z,5.10
2023-05-09T20:02:51.109Z,4.80
2023-05-09T20:08:09.491Z,4.63
2023-05-09T20:10:42.842Z,5.40
2023-05-09T20:13:14.861Z,5.32
2023-05-09T20:15:47.233Z,4.82
2023-05-09T20:18:19.195Z,4.35
2023-05-09T20:20:51.290Z,4.63
2023-05-09T20:23:23.178Z,4.50
2023-05-09T20:25:56.647Z,4.90
2023-05-09T20:28:28.576Z,4.78
2023-05-09T20:31:00.636Z,4.60
2023-05-09T20:33:32.558Z,5.55
2023-05-09T20:36:06.535Z,5.07
2023-05-09T20:38:38.494Z,5.57
2023-05-09T20:41:12.589Z,5.60
2023-05-09T20:43:44.658Z,4.70
2023-05-09T20:46:17.311Z,5.10
2023-05-09T20:48:49.306Z,6.68
2023-05-09T20:51:21.236Z,5.53
2023-05-09T20:53:53.168Z,5.57
2023-05-09T20:56:28.725Z,5.15
2023-05-09T20:59:31.332Z,5.47
2023-05-09T21:02:21.904Z,6.05
2023-05-09T21:04:54.006Z,6.10
2023-05-09T21:07:26.075Z,7.10
2023-05-09T21:09:58.540Z,5.65
2023-05-09T21:12:32.863Z,6.00
2023-05-09T21:15:05.938Z,6.97
2023-05-09T21:17:38.110Z,7.40
2023-05-09T21:20:10.852Z,7.05
2023-05-09T21:22:43.162Z,7.05
2023-05-09T21:25:16.357Z,6.97
2023-05-09T21:27:50.269Z,7.22
2023-05-09T21:30:22.425Z,7.10
2023-05-09T21:32:54.481Z,6.45
2023-05-09T21:35:26.459Z,6.35
2023-05-09T21:37:58.428Z,6.13
2023-05-09T21:40:30.491Z,6.65
2023-05-09T21:43:03.947Z,6.95
2023-05-09T21:45:35.894Z,8.95
2023-05-09T21:48:07.852Z,8.05
2023-05-09T21:50:40.094Z,6.82
2023-05-09T21:53:12.117Z,6.47
2023-05-09T21:55:44.033Z,6.00
2023-05-09T21:58:17.416Z,6.72
2023-05-09T22:00:49.484Z,8.07
2023-05-09T22:04:05.306Z,7.07
2023-05-09T22:06:37.416Z,5.95
2023-05-09T22:09:09.800Z,6.28
2023-05-09T22:11:41.783Z,6.10
2023-05-09T22:14:15.171Z,5.63
2023-05-09T22:16:47.265Z,5.72
2023-05-09T22:19:19.592Z,5.38
2023-05-09T22:21:51.529Z,5.75
2023-05-09T22:24:23.498Z,5.43
2023-05-09T22:26:55.563Z,5.63
2023-05-09T22:29:28.989Z,14.48
2023-05-09T22:32:01.083Z,14.93
2023-05-09T22:34:33.065Z,16.10
2023-05-09T22:37:05.047Z,29.15
2023-05-09T22:39:36.996Z,31.60
2023-05-09T22:42:09.785Z,35.80
2023-05-09T22:44:43.380Z,32.63
2023-05-09T22:47:15.397Z,34.10
2023-05-09T22:49:47.377Z,25.67
2023-05-09T22:52:19.539Z,27.45
2023-05-09T22:54:51.492Z,22.10
2023-05-09T22:57:23.881Z,19.65
2023-05-09T22:59:57.290Z,12.73
2023-05-09T23:02:29.259Z,12.75
2023-05-09T23:05:01.353Z,10.55
2023-05-09T23:07:33.282Z,8.70
2023-05-09T23:10:05.980Z,7.72
2023-05-09T23:12:38.201Z,6.95
2023-05-09T23:15:11.991Z,6.95
2023-05-09T23:17:43.966Z,7.22
2023-05-09T23:20:16.417Z,6.90
2023-05-09T23:22:48.493Z,8.15
2023-05-09T23:25:20.709Z,9.05
2023-05-09T23:27:52.604Z,17.13
2023-05-09T23:30:26.084Z,24.95
2023-05-09T23:32:58.210Z,24.45
2023-05-09T23:35:30.230Z,23.02
2023-05-09T23:38:03.879Z,23.38
2023-05-09T23:40:35.844Z,21.95
2023-05-09T23:43:07.784Z,20.13
2023-05-09T23:45:41.287Z,17.92
2023-05-09T23:48:13.206Z,13.93
2023-05-09T23:50:45.177Z,13.02
2023-05-09T23:53:17.242Z,12.23
2023-05-09T23:55:49.240Z,14.32
2023-05-09T23:58:21.250Z,10.40
